Hauptseite
METAR-TAF:

METAR-TAF

Flughäfen :

Coatesville, Pennsylvania, Vereinigte Staaten

Breite: 39-58-44N, Länge: 075-51-56W, Höhe: 201 m

Beobachtung

Neuester Wetterbericht von vor 26 Minuten, um 01:15 UTC
Wind 13 kt aus Nordwest
Temperatur -1°C
Luftfeuchtigkeit 54%
Luftdruck 1031 hPa
Sichtweite: 16.1 km
Himmel klar

METAR: KMQS 120115Z AUTO 31013KT 10SM CLR M01/M09 A3045 RMK AO2

Zeit: 20:41 (01:41 UTC)


TAF: fehlend

Wetterbeobachtungen und Prognosen von mehr als 4000 Flughäfen (METAR und TAF Bericht).

Die verfügbaren Stationen werden durch gelbe und rote Markierungen auf der Karte dargestellt.

Führen Sie die Maus auf sie, um den Namen der Station zu sehen.

Darauf klicken, um die Beobachtung von Wetterbeobachtungen und Prognosen zu sehen.

Um die Karte zu ändern : klicken Sie auf den grünen Tasten mit einem schwarzen Kreuz Zum Vergrößern, auf den grünen Button mit einem Gedankenstrich zu verkleinern, oder auf die grünen Pfeile für benachbarte Karten.


METAR-TAF: